Hazardville, Connecticut
Current Conditions -  °F | °C
As of 10:51 AM on Friday 21 Nov 2014 (Local Time) from KBDL Reporting Station
Broken Clouds Broken Clouds  
Wind Chill: 24°   Ceiling: 6000
Heat Index: 34°   Visibility: 10mi
Dew Point: 10°   Wind: 15mph
Humidity: 37%   Direction: 320°NW
Pressure: 30.18"   Gusts: 28mph
Location:  41.9843°N, 72.5534°W
Report Text: KBDL 211551Z 32013G24KT 10SM SCT049 BKN060 01/M12 A3018 RMK AO2 SLP223 T00111122
Loading
Personal Weather Stations






























Interactive Weather Map New forecast layout! Learn more

10-Day Weather Forecast

Advertisements
Track Severe Weather on mobile